Latest Coastal Weather Observations for Avalon

IDV60701

Issued at 6:15 am EST Sunday 31 August 2014 (issued every 10 minutes, with the page automatically refreshed every 10 minutes)

About coastal observations | Map of coastal stations | Coastal observations for VIC | Marine services | Other Formats
Station Details ID: 087113 Name: AVALON AIRPORT Lat: -38.03 Lon: 144.48 Height: 10.6 m
Data from the previous 72 hours. | See also: Recent months at Avalon
Date/Time
EST
Temp

°C
Wind Pressure Rain
since 9am
mm
Weather Cloud Vis
km
Sea
Height
m
Swell
Dir
 
Speed
knots
Gust
knots
hPa Trend Height
m
Period
s
Dir
31/06:00am 6.6 NE 10 11 1018.1 - 0.0 - - 10 - - - -
31/05:30am 6.9 NE 7 9 1018.0 - 0.0 - - 10 - - - -
31/05:00am 6.4 NNE 5 7 1017.9 - 0.0 - - 10 - - - -
31/04:30am 4.8 NE 3 5 1017.9 - 0.0 - - 10 - - - -
31/04:00am 4.8 NE 4 6 1018.0 - 0.0 - - 10 - - - -
31/03:30am 4.9 N 4 4 1018.3 - 0.0 - - 10 - - - -
31/03:00am 5.2 WNW 3 4 1018.5 - 0.0 - - 10 - - - -
31/02:30am 6.1 N 3 4 1018.7 - 0.0 - - 10 - - - -
31/02:00am 6.3 NE 5 6 1018.9 - 0.0 - - 10 - - - -
31/01:30am 5.9 ENE 5 7 1019.2 - 0.0 - - 10 - - - -
31/01:00am 5.8 CALM 0 0 1019.4 - 0.0 - - 10 - - - -
31/12:30am 6.8 CALM 0 0 1019.7 - 0.0 - - 10 - - - -
31/12:00am 6.7 NNW 2 5 1020.1 - 0.0 - - 10 - - - -
 
Date/Time
EST
Temp

°C
Wind Pressure Rain
since 9am
mm
Weather Cloud Vis
km
Sea
Height
m
Swell
Dir
 
Speed
knots
Gust
knots
hPa Trend Height
m
Period
s
Dir
30/11:30pm 8.5 NNE 5 6 1020.1 - 0.0 - - 10 - - - -
30/11:00pm 6.9 CALM 0 0 1020.4 - 0.0 - - 10 - - - -
30/10:30pm 9.0 N 5 6 1020.6 - 0.0 - - 10 - - - -
30/10:00pm 9.3 CALM 0 0 1021.1 - 0.0 - - 10 - - - -
30/09:53pm 9.2 CALM 0 0 1021.2 - 0.0 - - 10 - - - -
30/09:38pm 8.8 NNE 2 4 1021.4 - 0.0 - - 6 - - - -
30/09:30pm 10.0 N 4 5 1021.3 - 0.0 - - 8 - - - -
30/09:00pm 9.8 NNW 6 6 1021.4 - 0.0 - - 9 - - - -
30/08:30pm 10.3 N 5 6 1021.3 - 0.0 - - 9 - - - -
30/08:00pm 10.9 NNE 3 5 1021.3 - 0.0 - - 8 - - - -
30/07:30pm 12.2 NE 3 4 1021.3 - 0.0 - - 10 - - - -
30/07:00pm 12.2 NNE 3 4 1021.1 - 0.0 - - 10 - - - -
30/06:30pm 13.2 ENE 5 6 1021.0 - 0.0 - - 10 - - - -
30/06:00pm 14.4 E 6 7 1021.1 - 0.0 - - 10 - - - -
30/05:30pm 15.4 E 4 5 1021.3 - 0.0 - - 10 - - - -
30/05:00pm 15.7 ESE 4 6 1021.3 - 0.0 - - 10 - - - -
30/04:30pm 16.0 ESE 7 8 1021.2 - 0.0 - - 10 - - - -
30/04:00pm 16.4 ESE 7 8 1021.2 - 0.0 - - 10 - - - -
30/03:30pm 16.7 ESE 8 9 1021.2 - 0.0 - - 10 - - - -
30/03:00pm 17.2 ESE 8 10 1021.2 - 0.0 - - 10 - - - -
30/02:30pm 17.1 ESE 7 9 1021.6 - 0.0 - - 10 - - - -
30/02:00pm 16.7 SE 9 11 1022.0 - 0.0 - - 10 - - - -
30/01:30pm 16.1 ESE 8 10 1022.3 - 0.0 - - 10 - - - -
30/01:00pm 15.6 ESE 9 11 1022.9 - 0.0 - - 10 - - - -
30/12:30pm 15.1 E 9 11 1023.5 - 0.0 - - 9 - - - -
30/12:00pm 14.8 ESE 10 12 1024.0 - 0.0 - - 9 - - - -
30/11:30am 14.6 ESE 6 11 1024.5 - 0.0 - - 10 - - - -
30/11:00am 15.0 NNE 5 9 1024.8 - 0.0 - - 10 - - - -
30/10:31am 13.5 NNE 6 8 1025.3 - 0.0 - Partly cloudy 10 - - - -
30/10:30am 13.2 NNE 6 8 1025.3 - 0.0 - Partly cloudy 10 - - - -
30/10:00am 12.3 N 5 7 1025.8 - 0.0 - Cloudy 10 - - - -
30/09:30am 11.0 NE 7 9 1026.2 - 0.0 - Cloudy 10 - - - -
30/09:00am 11.1 N 4 6 1026.3 - 0.0 - Cloudy 10 - - - -
30/08:30am 10.6 N 5 6 1026.4 - 0.0 - Cloudy 10 - - - -
30/08:00am 10.6 N 5 7 1026.5 - 0.0 - Cloudy 10 - - - -
30/07:30am 10.4 N 5 7 1026.2 - 0.0 - Cloudy 10 - - - -
30/07:00am 10.2 NNE 5 6 1025.9 - 0.0 - Cloudy 10 - - - -
30/06:30am 9.8 NNE 3 5 1025.8 - 0.0 - Cloudy 9 - - - -
30/06:21am 9.8 NNE 3 4 1025.7 - 0.0 - Cloudy 8 - - - -
30/06:00am 9.9 NNE 4 5 1025.4 - 0.0 - Cloudy 5 - - - -
30/05:30am 9.7 CALM 0 4 1025.3 - 0.0 - Cloudy 4 - - - -
30/05:00am 9.7 CALM 0 5 1025.3 - 0.0 - Cloudy 5 - - - -
30/04:30am 9.3 WSW 3 5 1025.3 - 0.0 - Partly cloudy 3 - - - -
30/04:00am 9.2 WSW 4 5 1025.6 - 0.0 - Partly cloudy 4 - - - -
30/03:30am 8.5 W 3 5 1025.7 - 0.0 - Cloudy 3 - - - -
30/03:00am 8.4 W 4 5 1026.0 - 0.0 - Cloudy 2 - - - -
30/02:30am 8.0 NW 4 4 1026.3 - 0.0 - Cloudy 2 - - - -
30/02:09am 7.9 NW 4 5 1026.5 - 0.0 - Cloudy 1 - - - -
30/02:00am 7.0 NW 4 5 1026.6 - 0.0 - Partly cloudy 0.2 - - - -
30/01:57am 7.1 NW 4 5 1026.6 - 0.0 - Partly cloudy 0.2 - - - -
30/01:30am 7.1 NW 5 6 1026.9 - 0.0 - Partly cloudy 0.3 - - - -
30/01:00am 7.8 WNW 4 4 1026.9 - 0.0 - - 0.5 - - - -
30/12:58am 7.9 W 3 4 1026.9 - 0.0 - - 0.9 - - - -
30/12:30am 8.1 WSW 4 4 1027.1 - 0.0 - Partly cloudy 3 - - - -
30/12:00am 9.4 W 5 7 1027.4 - 0.0 - Mostly cloudy 6 - - - -
 
Date/Time
EST
Temp

°C
Wind Pressure Rain
since 9am
mm
Weather Cloud Vis
km
Sea
Height
m
Swell
Dir
 
Speed
knots
Gust
knots
hPa Trend Height
m
Period
s
Dir
29/11:30pm 9.7 W 3 4 1027.7 - 0.0 - Cloudy 6 - - - -
29/11:11pm 9.7 W 4 5 1027.8 - 0.0 - Partly cloudy 6 - - - -
29/11:05pm 9.7 W 4 5 1027.8 - 0.0 - Partly cloudy 7 - - - -
29/11:00pm 9.7 W 4 5 1027.9 - 0.0 - Partly cloudy 7 - - - -
29/10:30pm 9.2 W 1 6 1028.1 - 0.0 - Cloudy 5 - - - -
29/10:00pm 8.9 NW 3 4 1028.2 - 0.0 - Cloudy 6 - - - -
29/09:30pm 8.2 CALM 0 0 1028.4 - 0.0 - Cloudy 6 - - - -
29/09:00pm 7.9 CALM 0 0 1028.4 - 0.0 - Partly cloudy 4 - - - -
29/08:31pm 7.6 CALM 0 0 1028.3 - 0.0 - - 6 - - - -
29/08:30pm 7.4 CALM 0 0 1028.3 - 0.0 - - 7 - - - -
29/08:00pm 8.9 S 3 4 1028.3 - 0.0 - - 10 - - - -
29/07:30pm 9.5 S 4 5 1028.1 - 0.0 - - 10 - - - -
29/07:00pm 9.7 S 6 7 1028.2 - 0.0 - Partly cloudy 10 - - - -
29/06:30pm 9.9 SSE 4 5 1028.2 - 0.0 - Partly cloudy 10 - - - -
29/06:00pm 11.4 E 1 3 1028.0 - 0.0 - - 10 - - - -
29/05:30pm 12.8 E 3 5 1027.8 - 0.0 - - 10 - - - -
29/05:00pm 13.6 E 5 6 1027.8 - 0.0 - Partly cloudy 10 - - - -
29/04:30pm 14.1 E 7 9 1027.9 - 0.0 - - 10 - - - -
29/04:00pm 14.2 E 7 11 1027.9 - 0.0 - - 10 - - - -
29/03:30pm 14.0 E 9 12 1027.8 - 0.0 - - 10 - - - -
29/03:00pm 14.1 E 8 11 1027.8 - 0.0 - - 10 - - - -
29/02:30pm 14.9 E 8 11 1028.1 - 0.0 - Partly cloudy 10 - - - -
29/02:00pm 14.2 E 6 11 1028.2 - 0.0 - Partly cloudy 10 - - - -
29/01:30pm 14.4 ENE 6 9 1028.4 - 0.0 - Partly cloudy 10 - - - -
29/01:00pm 14.3 ENE 4 8 1028.6 - 0.0 - Partly cloudy 10 - - - -
29/12:30pm 14.2 E 6 9 1029.2 - 0.0 - Partly cloudy 10 - - - -
29/12:03pm 13.2 ENE 4 6 1029.5 - 0.0 - Partly cloudy 10 - - - -
29/12:00pm 13.1 ENE 4 5 1029.6 - 0.0 - Mostly cloudy 10 - - - -
29/11:30am 12.6 NNE 3 5 1030.0 - 0.0 - Partly cloudy 9 - - - -
29/11:00am 11.9 W 1 3 1030.1 - 0.0 - Cloudy 7 - - - -
29/10:47am 11.7 WNW 1 4 1030.1 - 0.0 - Cloudy 7 - - - -
29/10:30am 11.4 NW 4 5 1030.2 - 0.0 - Cloudy 6 - - - -
29/10:00am 10.7 NNW 4 6 1030.4 - 0.0 - Cloudy 5 - - - -
29/09:30am 9.5 NW 3 4 1030.4 - 0.0 - Cloudy 5 - - - -
29/09:00am 9.1 NW 3 4 1030.3 - 0.0 - Cloudy 3 - - - -
29/08:41am 8.9 W 4 5 1030.0 - 0.0 - Cloudy 1 - - - -
29/08:30am 8.6 W 3 4 1029.9 - 0.0 - Cloudy 0.9 - - - -
29/08:29am 8.7 W 3 4 1029.9 - 0.0 - Cloudy 0.9 - - - -
29/08:00am 8.0 WNW 6 7 1029.5 - 0.0 - Cloudy 3 - - - -
29/07:30am 7.5 WNW 7 8 1029.4 - 0.0 - Cloudy 4 - - - -
29/07:00am 7.8 NW 6 6 1029.1 - 0.0 - Partly cloudy 7 - - - -
29/06:30am 8.1 W 4 5 1028.9 - 0.0 - Cloudy 4 - - - -
29/06:16am 8.2 WSW 4 5 1028.9 - 0.0 - Cloudy 6 - - - -
29/06:00am 7.9 SW 3 3 1028.7 - 0.0 - Cloudy 9 - - - -
29/05:35am 7.5 NNW 5 5 1028.6 - 0.0 - Cloudy 8 - - - -
29/05:30am 7.4 NNW 4 5 1028.4 - 0.0 - Cloudy 7 - - - -
29/05:10am 7.4 NNW 5 6 1028.2 - 0.0 - Cloudy 6 - - - -
29/05:00am 7.9 NW 4 6 1028.2 - 0.0 - Cloudy 8 - - - -
29/04:30am 7.6 WNW 5 5 1028.3 - 0.0 - Cloudy 8 - - - -
29/04:06am 7.5 WNW 4 5 1028.3 - 0.0 - Cloudy 7 - - - -
29/04:00am 7.4 WNW 4 6 1028.3 - 0.0 - Cloudy 7 - - - -
29/03:30am 7.7 W 4 5 1028.2 - 0.0 - Cloudy 5 - - - -
29/03:00am 8.0 WNW 3 4 1028.4 - 0.0 - Cloudy 5 - - - -
29/02:30am 7.3 CALM 0 2 1028.6 - 0.0 - Cloudy 5 - - - -
29/02:00am 6.3 WNW 5 5 1028.7 - 0.0 - Cloudy 4 - - - -
29/01:41am 5.8 WNW 4 6 1028.7 - 0.0 - Partly cloudy 3 - - - -
29/01:30am 5.9 WNW 5 6 1028.7 - 0.0 - - 4 - - - -
29/01:12am 5.4 NW 5 5 1028.5 - 0.0 - Partly cloudy 2 - - - -
29/01:00am 6.0 NW 4 5 1028.5 - 0.0 - Partly cloudy 1 - - - -
29/12:56am 5.6 NW 4 5 1028.6 - 0.0 - Partly cloudy 1 - - - -
29/12:46am 5.9 NW 4 5 1028.6 - 0.0 - Partly cloudy 0.9 - - - -
29/12:30am 6.2 WNW 4 5 1028.6 - 0.0 - Partly cloudy 3 - - - -
29/12:19am 6.1 WNW 4 5 1028.6 - 0.0 - Partly cloudy 4 - - - -
29/12:00am 6.1 WNW 5 7 1028.6 - 0.0 - - 2 - - - -
 
Date/Time
EST
Temp

°C
Wind Pressure Rain
since 9am
mm
Weather Cloud Vis
km
Sea
Height
m
Swell
Dir
 
Speed
knots
Gust
knots
hPa Trend Height
m
Period
s
Dir
28/11:30pm 6.4 W 6 6 1028.6 - 0.0 - Partly cloudy 3 - - - -
28/11:26pm 6.6 W 6 6 1028.6 - 0.0 - Partly cloudy 0.9 - - - -
28/11:14pm 6.8 W 5 6 1028.6 - 0.0 - Partly cloudy 0.9 - - - -
28/11:00pm 7.9 WNW 4 5 1028.6 - 0.0 - - 3 - - - -
28/10:30pm 7.5 NW 6 7 1028.8 - 0.0 - Partly cloudy 1 - - - -
28/10:17pm 8.1 NW 5 6 1028.8 - 0.0 - Partly cloudy 2 - - - -
28/10:00pm 8.0 NNW 6 7 1028.9 - 0.0 - Partly cloudy 0.9 - - - -
28/09:42pm 8.1 WNW 4 5 1029.0 - 0.0 - - 0.9 - - - -
28/09:30pm 9.3 W 5 5 1029.0 - 0.0 - - 2 - - - -
28/09:00pm 9.3 WSW 5 6 1028.9 - 0.0 - - 4 - - - -
28/08:30pm 10.3 W 4 6 1028.8 - 0.0 - - 6 - - - -
28/08:26pm 10.1 W 4 5 1028.7 - 0.0 - - 6 - - - -
28/08:00pm 9.6 WSW 5 6 1028.4 - 0.0 - - 7 - - - -
28/07:30pm 10.6 SW 5 7 1028.2 - 0.0 - - 8 - - - -
28/07:08pm 10.3 SSW 7 9 1028.0 - 0.0 - - 7 - - - -
28/07:00pm 10.2 SSW 8 9 1028.0 - 0.0 - - 7 - - - -
28/06:35pm 11.3 SSW 6 8 1027.9 - 0.0 - - 6 - - - -
28/06:30pm 11.0 S 4 8 1027.8 - 0.0 - - 8 - - - -
28/06:00pm 13.3 ENE 3 4 1027.4 - 0.0 - - 10 - - - -
28/05:30pm 14.6 E 5 6 1027.2 - 0.0 - Partly cloudy 10 - - - -
28/05:00pm 15.1 E 6 7 1027.0 - 0.0 - Partly cloudy 10 - - - -
28/04:30pm 15.2 E 7 8 1026.9 - 0.0 - Partly cloudy 10 - - - -
28/04:00pm 15.9 E 8 9 1026.9 - 0.0 - Partly cloudy 10 - - - -
28/03:30pm 16.6 E 7 8 1026.8 - 0.0 - - 10 - - - -
28/03:00pm 16.2 ESE 7 8 1026.8 - 0.0 - - 10 - - - -
28/02:30pm 17.0 ESE 6 8 1026.9 - 0.0 - Partly cloudy 10 - - - -
28/02:00pm 16.4 ESE 5 6 1027.0 - 0.0 - - 10 - - - -
28/01:30pm 15.5 ESE 7 8 1027.2 - 0.0 - - 10 - - - -
28/01:00pm 14.3 SE 7 8 1027.7 - 0.0 - - 10 - - - -
28/12:30pm 14.4 SE 6 7 1028.1 - 0.0 - - 10 - - - -
28/12:00pm 14.3 SE 2 4 1028.4 - 0.0 - - 10 - - - -
28/11:30am 13.3 ENE 1 5 1028.7 - 0.0 - - 10 - - - -
28/11:00am 11.9 NE 2 4 1029.0 - 0.0 - - 10 - - - -
28/10:30am 10.7 CALM 0 3 1029.4 - 0.0 - - 10 - - - -
28/10:00am 9.0 CALM 0 0 1029.6 - 0.0 - - 10 - - - -
28/09:30am 7.6 N 1 3 1029.7 - 0.0 - - 10 - - - -
28/09:00am 6.3 CALM 0 0 1029.8 - 0.2 - Cloudy 10 - - - -
28/08:30am 5.7 NW 3 3 1029.8 - 0.2 - - 10 - - - -
28/08:00am 5.2 N 1 3 1029.5 - 0.2 - Partly cloudy 9 - - - -
28/07:50am 4.8 N 3 3 1029.4 - 0.2 - - 8 - - - -
28/07:32am 4.1 CALM 0 0 1029.4 - 0.2 - Partly cloudy 5 - - - -
28/07:30am 4.1 CALM 0 0 1029.4 - 0.2 - Partly cloudy 5 - - - -
28/07:17am 3.5 CALM 0 1 1029.3 - 0.2 - Partly cloudy 1 - - - -
28/07:00am 3.4 N 3 4 1029.2 - 0.2 - Cloudy 0.1 - - - -
28/06:30am 3.1 N 4 4 1029.2 - 0.2 - Partly cloudy 0.6 - - - -
28/06:28am 3.1 N 4 4 1029.2 - 0.2 - Partly cloudy 0.8 - - - -

Other Formats:

Comma delimited format used in spreadsheet applications
http://www.bom.gov.au/fwo/IDV60701/IDV60701.94854.axf

JavaScript Object Notation format (JSON) in row-major order
http://www.bom.gov.au/fwo/IDV60701/IDV60701.94854.json